Terminal Aerodrome Forecast
Issued by NWS Huntsville, AL

Home | Current Version | Previous Version | Text Only | Print | Product List | Glossary On
Versions: 1 2 3 4 5 6 7 8 9 10 11 12 13 14 15 16 17 18 19 20 21 22 23 24 25 26 27 28 29 30 31 32 33 34 35
000
FTUS44 KHUN 272320
TAFHSV
TAF
KHSV 272320Z 2800/2824 03008KT P6SM FEW150
     FM280100 03006KT P6SM OVC120
     FM280600 04006KT P6SM OVC090
     FM281300 10007KT P6SM BKN060 OVC120
     FM282100 12008KT P6SM OVC050=

USA.gov is the U.S. government's official web portal to all federal, state and local government web resources and services.